Latest Weather Observations for Mangalore

IDV60801

Issued at 6:02 pm EDT Friday 27 February 2015 (issued every 30 minutes, with the page automatically refreshed every 10 minutes)

About weather observations | Map of weather stations | Latest weather observations for VIC | Other Formats
Station Details ID: 088109 Name: MANGALORE AIRPORT Lat: -36.89 Lon: 145.19 Height: 140.8 m
Data from the previous 72 hours. | See also: Recent months at Mangalore
Date/Time
EDT
Temp
°C
App
Temp
°C
Dew
Point
Rel
Hum
%
Delta-T
°C
Wind Press
QNH
hPa
Press
MSL
hPa
Rain
since 9 am
mm
Dir
 
Spd
km/h
Gust
km/h
Spd
kts
Gust
kts
27/06:00pm 28.8 25.2 5.0 22 12.4 SSW 13 19 7 10 1007.3 1006.7 -
27/05:30pm 29.8 25.5 5.1 21 13.0 SSW 17 26 9 14 1007.6 1007.0 0.0
27/05:00pm 29.0 25.4 5.1 22 12.5 S 13 24 7 13 1007.4 1006.8 0.0
27/04:30pm 28.8 24.7 6.2 24 12.0 SW 17 26 9 14 1007.7 1007.1 0.0
27/04:00pm 28.5 24.6 7.1 26 11.5 SSW 17 26 9 14 1008.0 1007.4 0.0
27/03:30pm 28.2 24.6 6.9 26 11.4 SW 15 20 8 11 1008.4 1007.9 0.0
27/03:00pm 27.0 23.7 8.0 30 10.3 SSW 15 20 8 11 1008.8 1008.3 0.0
27/02:30pm 27.1 25.6 9.0 32 10.0 SE 7 15 4 8 1009.0 1008.5 0.0
27/02:00pm 26.4 24.3 8.4 32 9.8 SSE 9 17 5 9 1009.4 1008.9 0.0
27/01:30pm 25.5 22.2 8.1 33 9.4 SW 15 22 8 12 1009.9 1009.4 0.0
27/01:00pm 24.8 22.5 7.4 33 9.2 W 9 17 5 9 1010.1 1009.6 0.0
27/12:30pm 24.5 22.6 8.9 37 8.5 SSW 9 24 5 13 1010.4 1009.9 0.0
27/12:00pm 23.4 21.0 8.7 39 7.9 S 11 17 6 9 1010.7 1010.2 0.0
27/11:30am 23.1 21.9 10.2 44 7.1 SW 7 13 4 7 1011.2 1010.7 0.0
27/11:00am 22.1 20.7 10.9 49 6.2 S 9 15 5 8 1011.1 1010.6 0.0
27/10:30am 21.0 19.6 12.2 57 5.0 SW 11 19 6 10 1011.2 1010.7 0.0
27/10:00am 19.5 17.1 12.5 64 4.0 SSW 17 22 9 12 1011.0 1010.5 0.0
27/09:30am 18.0 15.9 12.5 70 3.1 SSW 15 20 8 11 1010.9 1010.4 0.0
27/09:00am 17.0 14.6 12.5 75 2.5 SSW 17 20 9 11 1010.7 1010.2 0.0
27/08:30am 15.8 14.5 12.5 81 1.8 SSW 11 17 6 9 1010.4 1009.9 0.0
27/08:00am 14.7 13.3 12.2 85 1.4 SSW 11 15 6 8 1010.2 1009.7 0.0
27/07:30am 13.5 12.3 11.7 89 1.0 SSW 9 13 5 7 1010.0 1009.5 0.0
27/07:00am 13.5 11.9 11.6 88 1.0 SSW 11 13 6 7 1009.8 1009.3 0.0
27/06:30am 13.6 11.6 11.5 87 1.1 S 13 17 7 9 1009.6 1009.1 0.0
27/05:30am 14.2 12.7 11.9 86 1.2 SW 11 15 6 8 1009.5 1009.0 0.0
27/05:00am 14.1 13.2 11.4 84 1.5 SSW 7 11 4 6 1009.3 1008.8 0.0
27/04:30am 14.5 12.6 11.8 84 1.5 SSW 13 19 7 10 1009.6 1009.1 0.0
27/04:00am 15.1 12.1 12.1 82 1.6 SSW 19 26 10 14 1009.8 1009.3 0.0
27/03:30am 15.1 12.9 12.2 83 1.6 SSW 15 22 8 12 1009.7 1009.2 0.0
27/03:00am 15.3 13.3 12.6 84 1.5 SW 15 19 8 10 1009.7 1009.2 0.0
27/02:30am 15.5 13.9 12.8 84 1.5 SW 13 17 7 9 1010.1 1009.6 0.0
27/02:00am 15.7 14.6 13.0 84 1.5 SSW 11 13 6 7 1010.2 1009.7 0.0
27/01:30am 16.0 14.4 12.9 82 1.7 SSW 13 17 7 9 1010.3 1009.8 0.0
27/01:00am 16.5 14.7 13.2 81 1.9 SW 15 22 8 12 1010.5 1010.0 0.0
27/12:30am 16.9 15.1 13.2 79 2.1 SW 15 24 8 13 1010.4 1009.9 0.0
27/12:00am 17.3 15.1 13.4 78 2.2 SW 17 20 9 11 1010.2 1009.7 0.0
 
Date/Time
EDT
Temp
°C
App
Temp
°C
Dew
Point
Rel
Hum
%
Delta-T
°C
Wind Press
QNH
hPa
Press
MSL
hPa
Rain
since 9 am
mm
Dir
 
Spd
km/h
Gust
km/h
Spd
kts
Gust
kts
26/11:30pm 17.7 16.4 13.6 77 2.3 SW 13 19 7 10 1010.2 1009.7 0.0
26/11:00pm 18.4 17.0 13.5 73 2.8 SW 13 17 7 9 1010.4 1009.9 0.0
26/10:30pm 19.4 17.9 13.1 67 3.6 SSW 13 17 7 9 1010.3 1009.8 0.0
26/10:00pm 20.8 18.9 11.7 56 5.1 S 13 17 7 9 1010.2 1009.7 0.0
26/09:30pm 21.5 18.4 11.5 53 5.6 SSE 19 24 10 13 1010.0 1009.5 0.0
26/08:30pm 22.9 20.0 12.2 51 6.1 SSE 19 28 10 15 1008.9 1008.4 0.0
26/08:00pm 23.8 20.8 12.1 48 6.7 SSE 19 26 10 14 1008.4 1007.9 0.0
26/07:30pm 24.8 20.9 12.1 45 7.3 SSE 24 33 13 18 1008.0 1007.4 0.0
26/07:00pm 26.1 22.4 11.4 39 8.4 S 22 30 12 16 1007.6 1007.0 0.0
26/06:30pm 26.9 23.5 11.4 38 8.9 SSW 20 28 11 15 1007.4 1006.8 0.0
26/05:30pm 27.9 24.9 12.7 39 8.9 SSW 20 33 11 18 1007.4 1006.8 0.0
26/05:00pm 27.2 23.6 11.7 38 9.0 S 22 33 12 18 1007.6 1007.0 0.0
26/04:30pm 28.1 24.4 11.6 36 9.5 SSW 22 35 12 19 1007.7 1007.1 0.0
26/04:00pm 27.8 24.1 11.4 36 9.5 SSW 22 33 12 18 1008.0 1007.4 0.0
26/03:30pm 28.3 24.6 11.4 35 9.8 SW 22 35 12 19 1008.2 1007.7 0.0
26/03:00pm 27.6 23.2 10.3 34 9.8 SW 24 33 13 18 1008.5 1008.0 0.0
26/02:30pm 27.8 24.2 10.5 34 9.8 SSW 20 32 11 17 1008.7 1008.2 0.0
26/02:00pm 27.3 23.5 7.7 29 10.6 SSW 17 30 9 16 1009.0 1008.5 0.0
26/01:30pm 25.4 23.8 12.9 45 7.3 SSE 13 20 7 11 1009.2 1008.7 0.0
26/01:00pm 24.8 23.5 13.7 50 6.6 S 13 19 7 10 1009.7 1009.2 0.0
26/12:30pm 23.4 22.6 14.1 56 5.5 SW 11 19 6 10 1010.1 1009.6 0.0
26/12:00pm 22.7 21.4 14.8 61 4.7 SSW 15 20 8 11 1010.3 1009.8 0.0
26/11:30am 21.8 20.5 14.7 64 4.2 SSW 15 24 8 13 1010.7 1010.2 0.0
26/11:00am 21.6 21.6 14.3 63 4.3 S 7 13 4 7 1010.5 1010.0 0.0
26/10:30am 20.4 20.1 15.4 73 3.0 SSW 11 15 6 8 1010.6 1010.1 0.0
26/10:00am 18.8 17.8 14.5 76 2.5 S 13 17 7 9 1010.6 1010.1 0.0
26/09:30am 18.4 17.9 14.9 80 2.0 SSW 11 17 6 9 1010.8 1010.3 0.0
26/09:00am 17.6 17.5 14.9 84 1.6 SSW 9 13 5 7 1010.7 1010.2 0.0
26/08:30am 17.5 16.4 14.2 81 1.9 SSW 13 17 7 9 1010.3 1009.8 0.0
26/08:00am 16.8 16.0 14.1 84 1.5 SSW 11 13 6 7 1010.1 1009.6 0.0
26/07:30am 16.4 16.4 14.1 86 1.3 S 7 9 4 5 1009.7 1009.2 0.0
26/07:00am 16.2 16.3 13.9 86 1.3 S 6 7 3 4 1009.2 1008.7 0.0
26/06:30am 16.4 15.9 13.9 85 1.4 S 9 11 5 6 1009.1 1008.6 0.0
26/06:00am 16.2 16.0 12.9 81 1.8 S 6 7 3 4 1008.7 1008.2 0.0
26/05:30am 17.4 16.1 13.7 79 2.1 SSW 13 17 7 9 1008.8 1008.3 0.0
26/05:00am 17.3 16.0 13.8 80 2.0 SSW 13 19 7 10 1008.7 1008.2 0.0
26/04:30am 17.2 15.5 13.7 80 2.0 S 15 19 8 10 1008.6 1008.1 0.0
26/04:00am 16.9 16.2 13.2 79 2.1 E 9 11 5 6 1008.5 1008.0 0.0
26/03:30am 17.0 16.8 13.5 80 2.0 ENE 7 9 4 5 1008.4 1007.9 0.0
26/03:00am 17.6 17.1 13.7 78 2.2 SSW 9 11 5 6 1008.7 1008.2 0.0
26/02:30am 18.0 16.5 14.1 78 2.2 SSW 15 19 8 10 1008.7 1008.2 0.0
26/02:00am 18.0 17.2 14.1 78 2.3 SSW 11 15 6 8 1009.0 1008.5 0.0
26/01:30am 18.5 17.7 14.0 75 2.6 SSW 11 17 6 9 1009.0 1008.5 0.0
26/01:00am 18.5 18.0 13.8 74 2.7 SW 9 13 5 7 1009.1 1008.6 0.0
26/12:30am 18.9 18.3 13.5 71 3.1 SW 9 15 5 8 1009.3 1008.8 0.0
26/12:00am 19.6 18.2 13.5 68 3.5 WSW 13 17 7 9 1009.4 1008.9 0.0
 
Date/Time
EDT
Temp
°C
App
Temp
°C
Dew
Point
Rel
Hum
%
Delta-T
°C
Wind Press
QNH
hPa
Press
MSL
hPa
Rain
since 9 am
mm
Dir
 
Spd
km/h
Gust
km/h
Spd
kts
Gust
kts
25/11:30pm 19.3 19.0 13.2 68 3.5 WSW 7 9 4 5 1009.2 1008.7 0.0
25/11:00pm 20.2 19.8 12.9 63 4.2 WSW 7 11 4 6 1009.3 1008.8 0.0
25/10:30pm 20.1 19.6 12.8 63 4.2 WSW 7 9 4 5 1009.4 1008.9 0.0
25/10:00pm 20.0 20.1 12.7 63 4.1 WSW 4 15 2 8 1009.3 1008.8 0.0
25/09:30pm 20.3 21.2 12.8 62 4.3 CALM 0 0 0 0 1009.3 1008.8 0.0
25/09:00pm 21.9 22.5 11.9 53 5.7 CALM 0 4 0 2 1009.1 1008.6 0.0
25/08:30pm 24.5 23.6 10.8 42 7.7 WSW 6 7 3 4 1009.0 1008.5 0.0
25/08:00pm 25.9 24.8 10.5 38 8.7 WSW 7 7 4 4 1009.1 1008.6 0.0
25/07:30pm 27.2 25.9 11.2 36 9.2 WSW 9 11 5 6 1008.9 1008.4 0.0
25/07:00pm 27.5 25.4 9.8 33 9.9 W 11 15 6 8 1009.0 1008.5 0.0
25/06:30pm 28.6 26.6 10.3 32 10.4 WNW 11 19 6 10 1009.0 1008.5 0.0
25/06:00pm 29.3 29.2 10.9 32 10.6 N 2 11 1 6 1009.2 1008.7 0.0
25/05:30pm 29.2 27.2 10.3 31 10.8 NW 11 19 6 10 1009.5 1009.0 0.0
25/05:00pm 28.7 26.1 10.8 33 10.3 NNW 15 20 8 11 1009.5 1009.0 0.0
25/04:30pm 28.3 26.8 10.5 33 10.1 N 9 19 5 10 1009.9 1009.4 0.0
25/04:00pm 28.2 26.0 10.9 34 9.9 N 13 22 7 12 1010.5 1010.0 0.0
25/03:30pm 28.4 26.0 12.7 38 9.3 N 17 22 9 12 1010.9 1010.4 0.0
25/03:00pm 26.5 23.3 11.4 39 8.6 N 19 28 10 15 1011.5 1010.9 0.0
25/02:30pm 26.1 24.7 12.2 42 8.0 NNE 11 20 6 11 1012.1 1011.5 0.0
25/02:00pm 26.2 23.6 11.9 41 8.2 N 17 30 9 16 1012.5 1011.9 0.0
25/01:30pm 26.6 24.3 13.0 43 8.0 NNE 17 26 9 14 1012.9 1012.3 0.0
25/01:00pm 25.7 22.9 12.5 44 7.7 N 19 28 10 15 1013.4 1012.8 0.0
25/12:30pm 26.1 22.7 13.6 46 7.4 N 24 35 13 19 1013.7 1013.1 0.0
25/12:00pm 25.1 21.5 13.0 47 7.1 N 24 37 13 20 1014.0 1013.4 0.0
25/11:30am 24.0 20.0 12.9 50 6.4 NNE 26 35 14 19 1014.3 1013.8 0.0
25/11:00am 23.2 20.6 13.1 53 5.9 NNE 19 33 10 18 1014.7 1014.2 0.0
25/10:30am 22.1 20.5 12.9 56 5.3 NNE 13 20 7 11 1014.7 1014.2 0.0
25/10:00am 19.9 19.6 13.4 66 3.7 SSW 7 11 4 6 1015.1 1014.6 0.0
25/09:30am 17.5 16.4 13.0 75 2.5 SSW 11 15 6 8 1015.1 1014.6 0.0
25/09:00am 16.1 14.3 12.1 77 2.2 SW 13 17 7 9 1015.0 1014.5 0.0
25/08:30am 15.3 13.8 11.9 80 1.9 SW 11 15 6 8 1014.8 1014.3 0.0
25/08:00am 14.5 12.5 11.6 83 1.6 SSW 13 15 7 8 1014.5 1014.0 0.0
25/07:30am 13.5 11.4 11.2 86 1.2 SSW 13 17 7 9 1014.2 1013.6 0.0
25/07:00am 13.3 10.4 11.0 86 1.2 SSW 17 24 9 13 1014.2 1013.6 0.0
25/06:30am 13.3 10.4 11.0 86 1.2 SSW 17 24 9 13 1014.0 1013.4 0.0
25/06:00am 13.5 10.6 11.0 85 1.3 SSW 17 22 9 12 1013.9 1013.3 0.0
25/05:30am 13.5 10.6 11.0 85 1.3 SSW 17 22 9 12 1013.9 1013.3 0.0
25/05:00am 13.6 10.7 10.9 84 1.4 SSW 17 22 9 12 1013.9 1013.3 0.0
25/04:30am 13.8 10.8 10.8 82 1.6 SSW 17 20 9 11 1014.0 1013.4 0.0
25/04:00am 14.1 11.9 10.9 81 1.7 SSW 13 17 7 9 1014.1 1013.5 0.0
25/03:30am 14.1 11.9 10.7 80 1.8 SSW 13 19 7 10 1014.2 1013.6 0.0
25/03:00am 14.2 11.2 10.6 79 1.9 SSW 17 22 9 12 1014.2 1013.6 0.0
25/02:30am 14.5 11.5 10.7 78 2.0 SSW 17 20 9 11 1014.2 1013.6 0.0
25/02:00am 14.6 11.6 10.6 77 2.1 S 17 22 9 12 1014.4 1013.9 0.0
25/01:30am 14.7 11.7 10.5 76 2.2 SSW 17 20 9 11 1014.7 1014.2 0.0
25/01:00am 15.2 12.2 10.6 74 2.4 SSW 17 24 9 13 1015.0 1014.5 0.0
25/12:30am 15.4 12.0 10.4 72 2.6 SSW 19 28 10 15 1015.2 1014.7 0.0
25/12:00am 15.8 11.8 10.3 70 2.9 SSW 22 35 12 19 1015.6 1015.1 0.0
 
Date/Time
EDT
Temp
°C
App
Temp
°C
Dew
Point
Rel
Hum
%
Delta-T
°C
Wind Press
QNH
hPa
Press
MSL
hPa
Rain
since 9 am
mm
Dir
 
Spd
km/h
Gust
km/h
Spd
kts
Gust
kts
24/11:30pm 15.9 11.8 10.2 69 3.0 S 22 32 12 17 1016.0 1015.5 0.0
24/11:00pm 15.8 12.6 9.9 68 3.1 SSW 17 28 9 15 1016.3 1015.8 0.0
24/10:30pm 15.7 12.4 9.6 67 3.2 SSW 17 26 9 14 1016.6 1016.1 0.0
24/10:00pm 15.9 11.6 9.3 65 3.4 SSW 22 28 12 15 1016.5 1016.0 0.0
24/09:30pm 16.1 12.1 9.1 63 3.6 SSW 20 30 11 16 1016.5 1016.0 0.0
24/09:00pm 16.6 12.7 8.6 59 4.1 SSW 19 28 10 15 1016.3 1015.8 0.0
24/08:30pm 17.1 12.9 8.3 56 4.5 SSW 20 28 11 15 1016.1 1015.6 0.0
24/08:00pm 18.8 13.4 7.9 49 5.6 S 26 35 14 19 1016.0 1015.5 0.0
24/07:30pm 19.8 13.9 7.5 45 6.3 S 28 41 15 22 1015.8 1015.3 0.0
24/07:00pm 20.4 13.5 7.1 42 6.8 S 33 44 18 24 1015.6 1015.1 0.0
24/06:30pm 21.5 15.6 7.7 41 7.2 S 28 39 15 21 1015.7 1015.2 0.0

Other Formats:

Comma delimited format used in spreadsheet applications
http://www.bom.gov.au/fwo/IDV60801/IDV60801.94874.axf

JavaScript Object Notation format (JSON) in row-major order
http://www.bom.gov.au/fwo/IDV60801/IDV60801.94874.json